Time;durP1;ratioP1;P1;durP2;ratioP2;P2;SDS_P1;SDS_P2;PMS_P1;PMS_P2;Temp;Humidity;BMP_temperature;BMP_pressure;BME280_temperature;BME280_humidity;BME280_pressure;Samples;Min_cycle;Max_cycle;Signal;HPM_P1;HPM_P2
2022/11/01 00:02:12;;;;;;;16.10;12.48;;;13.00;87.90;;;;;;5005267;28;20052;-59
2022/11/01 00:04:38;;;;;;;15.52;11.95;;;13.00;87.80;;;;;;5003077;28;20045;-60
2022/11/01 00:07:04;;;;;;;16.60;11.85;;;13.00;87.80;;;;;;5003799;28;20026;-61
2022/11/01 00:09:29;;;;;;;17.30;12.38;;;13.00;87.80;;;;;;5005797;28;20044;-59
2022/11/01 00:11:55;;;;;;;17.08;12.48;;;13.00;87.70;;;;;;5001926;28;20034;-60
2022/11/01 00:14:21;;;;;;;14.40;11.77;;;13.00;87.80;;;;;;5004821;28;20046;-61
2022/11/01 00:16:46;;;;;;;16.83;11.80;;;13.00;87.80;;;;;;5004519;28;20053;-60
2022/11/01 00:19:12;;;;;;;15.95;11.82;;;13.00;87.70;;;;;;5004560;28;20057;-60
2022/11/01 00:21:38;;;;;;;15.52;11.30;;;13.00;87.70;;;;;;5004575;28;20061;-61
2022/11/01 00:24:04;;;;;;;13.23;11.15;;;13.00;87.50;;;;;;5005178;28;20088;-60
2022/11/01 00:26:30;;;;;;;14.02;11.63;;;13.00;87.40;;;;;;5005043;28;20042;-60
2022/11/01 00:28:55;;;;;;;19.38;11.98;;;13.00;87.50;;;;;;5009285;28;20040;-59
2022/11/01 00:31:21;;;;;;;15.32;11.43;;;13.00;87.50;;;;;;5008371;28;20041;-60
2022/11/01 00:33:47;;;;;;;15.40;11.55;;;13.00;87.50;;;;;;5007191;28;20030;-60
2022/11/01 00:36:13;;;;;;;13.57;11.70;;;13.00;87.50;;;;;;5007816;28;20685;-60
2022/11/01 00:38:39;;;;;;;14.88;12.05;;;13.00;87.40;;;;;;5008475;28;20104;-60
2022/11/01 00:41:05;;;;;;;15.43;11.68;;;13.00;87.20;;;;;;5009433;28;20429;-60
2022/11/01 00:43:32;;;;;;;17.98;11.63;;;12.90;87.20;;;;;;5007907;28;20042;-60
2022/11/01 00:45:58;;;;;;;18.42;12.93;;;12.90;87.30;;;;;;5006316;28;20100;-61
2022/11/01 00:48:23;;;;;;;18.65;12.68;;;12.90;87.30;;;;;;5006000;28;20034;-62
2022/11/01 00:50:49;;;;;;;14.77;12.30;;;12.90;87.60;;;;;;5007459;28;20044;-60
2022/11/01 00:53:14;;;;;;;16.85;12.10;;;12.80;87.60;;;;;;5008545;28;20030;-61
2022/11/01 00:55:40;;;;;;;16.08;11.88;;;12.90;87.70;;;;;;5008400;28;20084;-61
2022/11/01 00:58:07;;;;;;;16.60;11.90;;;12.90;87.70;;;;;;5007298;28;20029;-61
2022/11/01 01:00:33;;;;;;;15.38;12.00;;;12.90;87.60;;;;;;5007763;28;20611;-60
2022/11/01 01:02:58;;;;;;;16.88;11.57;;;12.90;87.40;;;;;;5004299;28;20066;-60
2022/11/01 01:05:24;;;;;;;16.20;11.80;;;12.90;87.30;;;;;;5004566;28;20042;-59
2022/11/01 01:07:49;;;;;;;16.45;11.50;;;12.90;87.10;;;;;;5000069;28;20493;-61
2022/11/01 01:10:15;;;;;;;17.90;10.95;;;12.90;87.20;;;;;;5003621;28;20034;-60
2022/11/01 01:12:41;;;;;;;17.60;12.13;;;12.90;87.20;;;;;;5002699;28;20060;-60
2022/11/01 01:15:07;;;;;;;16.90;12.88;;;12.90;87.30;;;;;;5006493;28;20031;-61
2022/11/01 01:17:33;;;;;;;16.02;12.07;;;12.80;87.30;;;;;;5009167;28;20045;-62
2022/11/01 01:19:58;;;;;;;17.35;12.45;;;12.90;87.10;;;;;;5006478;28;20045;-62
2022/11/01 01:22:24;;;;;;;17.00;12.55;;;12.90;87.10;;;;;;5008363;28;20042;-59
2022/11/01 01:24:50;;;;;;;18.48;12.60;;;12.80;86.90;;;;;;5006667;28;20033;-59
2022/11/01 01:27:16;;;;;;;16.98;12.63;;;12.80;86.90;;;;;;5007756;28;20034;-61
2022/11/01 01:29:44;;;;;;;18.67;12.23;;;12.80;86.90;;;;;;5008851;28;20652;-62
2022/11/01 01:32:14;;;;;;;15.55;12.40;;;12.80;87.10;;;;;;5007910;28;20054;-61
2022/11/01 01:34:40;;;;;;;17.85;13.77;;;12.80;87.00;;;;;;5007942;28;20049;-61
2022/11/01 01:37:07;;;;;;;18.40;13.15;;;12.80;87.00;;;;;;5008743;28;20018;-60
2022/11/01 01:39:33;;;;;;;18.20;13.32;;;12.70;87.10;;;;;;5007383;28;20034;-61
2022/11/01 01:42:20;;;;;;;17.85;12.82;;;12.70;87.30;;;;;;5008115;28;20018;-59
2022/11/01 01:44:55;;;;;;;19.02;13.27;;;12.60;87.40;;;;;;4997027;28;20428;-62
2022/11/01 01:47:22;;;;;;;16.65;12.27;;;12.60;87.60;;;;;;5008400;28;20030;-60
2022/11/01 01:49:53;;;;;;;17.33;12.98;;;12.60;87.60;;;;;;5008526;28;20030;-60
2022/11/01 01:52:19;;;;;;;21.13;13.35;;;12.60;87.50;;;;;;5006434;28;21024;-60
2022/11/01 01:54:45;;;;;;;17.60;12.90;;;12.60;87.60;;;;;;5007336;28;20424;-61
2022/11/01 01:57:11;;;;;;;20.20;13.63;;;12.60;87.50;;;;;;5007820;28;20034;-61
2022/11/01 01:59:39;;;;;;;20.52;13.48;;;12.70;87.40;;;;;;5007520;28;20034;-61
2022/11/01 02:02:04;;;;;;;17.70;14.40;;;12.60;87.30;;;;;;5003135;28;20161;-60
2022/11/01 02:04:37;;;;;;;17.35;12.98;;;12.60;88.20;;;;;;5008232;28;20050;-61
2022/11/01 02:07:03;;;;;;;18.25;12.70;;;12.60;87.60;;;;;;5007214;28;20087;-60
2022/11/01 02:09:29;;;;;;;19.55;13.85;;;12.60;87.70;;;;;;5007977;28;20046;-60
2022/11/01 02:11:56;;;;;;;19.35;14.27;;;12.60;87.80;;;;;;5006746;28;20034;-59
2022/11/01 02:14:23;;;;;;;20.30;14.38;;;12.60;87.80;;;;;;5007086;28;20053;-59
2022/11/01 02:17:16;;;;;;;19.67;14.43;;;12.60;87.80;;;;;;5007480;28;20038;-60
2022/11/01 02:19:59;;;;;;;21.20;14.50;;;12.60;88.10;;;;;;5007918;28;20121;-59
2022/11/01 02:22:45;;;;;;;22.48;15.25;;;12.60;88.40;;;;;;5007429;28;20072;-60
2022/11/01 02:25:52;;;;;;;21.77;14.55;;;12.60;88.50;;;;;;5007572;28;20161;-59
2022/11/01 02:28:37;;;;;;;21.73;15.02;;;12.60;88.60;;;;;;5001014;28;20052;-60
2022/11/01 02:31:33;;;;;;;22.27;14.07;;;12.70;88.60;;;;;;5006885;28;20033;-59
2022/11/01 02:34:27;;;;;;;22.38;14.27;;;12.70;88.50;;;;;;5007203;28;20113;-60
2022/11/01 02:37:17;;;;;;;23.45;14.75;;;12.70;88.50;;;;;;5007697;28;20065;-61
2022/11/01 02:39:49;;;;;;;22.88;15.43;;;12.70;88.50;;;;;;5007624;28;20037;-60
2022/11/01 02:42:37;;;;;;;22.23;15.20;;;12.70;88.20;;;;;;5007360;28;20048;-59
2022/11/01 02:45:26;;;;;;;21.25;15.02;;;12.70;88.50;;;;;;5021411;28;20062;-61
2022/11/01 02:47:54;;;;;;;27.40;15.93;;;12.70;88.50;;;;;;5007114;28;20037;-60
2022/11/01 02:50:20;;;;;;;22.90;15.50;;;12.70;88.40;;;;;;5005949;28;20492;-60
2022/11/01 02:52:46;;;;;;;25.50;15.52;;;12.80;88.50;;;;;;5004928;28;20042;-60
2022/11/01 02:55:28;;;;;;;26.70;17.02;;;12.80;88.50;;;;;;5006607;28;20061;-60
2022/11/01 02:57:58;;;;;;;20.85;15.52;;;12.80;88.80;;;;;;5007020;28;20111;-59
2022/11/01 03:00:27;;;;;;;23.40;16.17;;;12.80;88.60;;;;;;5007271;28;20040;-62
2022/11/01 03:03:29;;;;;;;23.75;16.00;;;12.80;88.80;;;;;;4990836;28;20045;-61
2022/11/01 03:06:04;;;;;;;25.95;17.38;;;12.80;89.20;;;;;;5005901;28;20026;-62
2022/11/01 03:08:36;;;;;;;24.23;17.63;;;12.90;89.10;;;;;;5006293;28;20026;-62
2022/11/01 03:11:25;;;;;;;23.38;16.45;;;12.90;88.90;;;;;;5002848;28;20030;-61
2022/11/01 03:14:00;;;;;;;22.80;16.33;;;12.90;89.10;;;;;;5002600;28;20038;-60
2022/11/01 03:16:44;;;;;;;29.60;17.42;;;12.90;89.00;;;;;;5006306;28;20042;-60
2022/11/01 03:19:31;;;;;;;22.17;16.30;;;12.90;89.00;;;;;;5007665;28;20037;-61
2022/11/01 03:22:02;;;;;;;21.73;16.08;;;13.00;89.20;;;;;;5006155;28;20418;-61
2022/11/01 03:24:36;;;;;;;25.98;16.40;;;13.00;89.00;;;;;;5005915;28;20029;-59
2022/11/01 03:27:09;;;;;;;23.27;16.77;;;13.00;89.00;;;;;;5006930;28;20037;-59
2022/11/01 03:29:36;;;;;;;25.20;17.58;;;13.00;89.10;;;;;;5006649;28;20044;-61
2022/11/01 03:32:03;;;;;;;23.40;16.90;;;13.00;89.00;;;;;;5006594;28;20494;-60
2022/11/01 03:34:31;;;;;;;23.35;16.88;;;13.00;88.90;;;;;;5006310;28;20464;-62
2022/11/01 03:37:04;;;;;;;22.63;17.48;;;13.10;89.00;;;;;;5007077;28;20653;-59
2022/11/01 03:39:47;;;;;;;24.40;17.48;;;13.10;90.00;;;;;;5006269;28;20045;-61
2022/11/01 03:42:17;;;;;;;26.70;17.45;;;13.10;89.20;;;;;;5006208;28;20049;-60
2022/11/01 03:45:05;;;;;;;26.75;18.52;;;13.10;89.20;;;;;;5006303;28;20042;-61
2022/11/01 03:47:31;;;;;;;28.10;18.08;;;13.10;89.50;;;;;;5007076;28;20041;-61
2022/11/01 03:50:17;;;;;;;27.80;18.73;;;13.20;89.20;;;;;;5005558;28;20426;-61
2022/11/01 03:52:43;;;;;;;25.35;18.52;;;13.20;89.80;;;;;;5005724;28;20045;-60
2022/11/01 03:55:18;;;;;;;26.15;19.38;;;13.10;89.30;;;;;;5004160;28;20034;-60
2022/11/01 03:57:47;;;;;;;27.55;18.25;;;13.10;89.50;;;;;;5005978;28;20038;-61
2022/11/01 04:00:15;;;;;;;26.48;19.17;;;13.20;89.70;;;;;;5006577;28;20034;-60
2022/11/01 04:02:42;;;;;;;27.23;19.23;;;13.20;89.70;;;;;;5007989;28;20038;-61
2022/11/01 04:05:08;;;;;;;26.42;19.45;;;13.20;89.60;;;;;;5010171;28;20049;-61
2022/11/01 04:07:33;;;;;;;26.35;18.67;;;13.20;89.70;;;;;;5010221;28;20064;-59
2022/11/01 04:09:59;;;;;;;29.33;19.80;;;13.20;89.70;;;;;;5010188;28;20425;-61
2022/11/01 04:12:25;;;;;;;31.02;20.52;;;13.20;89.80;;;;;;5005304;28;20388;-60
2022/11/01 04:20:31;;;;;;;27.10;19.25;;;13.30;89.90;;;;;;5009325;28;20121;-60
2022/11/01 04:23:00;;;;;;;27.58;18.65;;;13.30;89.90;;;;;;5009608;28;20494;-60
2022/11/01 04:25:26;;;;;;;27.73;19.33;;;13.30;89.90;;;;;;5009097;28;20505;-59
2022/11/01 04:27:55;;;;;;;27.50;18.88;;;13.40;90.00;;;;;;5010472;28;20053;-61
2022/11/01 04:30:24;;;;;;;34.63;19.17;;;13.40;89.90;;;;;;5009037;28;20045;-59
2022/11/01 04:32:50;;;;;;;26.75;19.05;;;13.50;89.90;;;;;;5007454;28;20478;-60
2022/11/01 04:35:16;;;;;;;25.70;18.77;;;13.50;90.00;;;;;;5008401;28;20040;-61
2022/11/01 04:37:41;;;;;;;28.73;19.08;;;13.50;89.90;;;;;;5008225;28;20160;-61
2022/11/01 04:40:07;;;;;;;26.02;18.65;;;13.50;89.90;;;;;;5008403;28;20402;-60
2022/11/01 04:42:34;;;;;;;26.70;18.48;;;13.50;89.80;;;;;;5007512;28;20030;-60
2022/11/01 04:45:00;;;;;;;27.15;19.02;;;13.50;89.80;;;;;;5008098;28;20068;-60
2022/11/01 04:47:26;;;;;;;24.10;17.63;;;13.60;89.90;;;;;;5008419;28;20034;-60
2022/11/01 04:49:52;;;;;;;27.73;18.48;;;13.60;89.90;;;;;;5006220;28;20034;-61
2022/11/01 04:52:18;;;;;;;27.45;18.75;;;13.60;89.90;;;;;;5009309;28;20080;-60
2022/11/01 04:54:43;;;;;;;26.67;18.13;;;13.60;89.80;;;;;;5007236;28;20077;-60
2022/11/01 04:57:21;;;;;;;27.48;19.13;;;13.60;89.70;;;;;;5010176;28;20123;-60
2022/11/01 04:59:51;;;;;;;34.08;18.77;;;13.60;89.50;;;;;;5007218;28;20116;-59
2022/11/01 05:02:17;;;;;;;23.63;18.10;;;13.60;89.50;;;;;;5008052;28;20041;-60
2022/11/01 05:04:42;;;;;;;28.75;19.25;;;13.60;89.30;;;;;;5007452;28;20046;-61
2022/11/01 05:07:08;;;;;;;27.92;18.55;;;13.70;89.30;;;;;;5006735;28;20038;-60
2022/11/01 05:09:33;;;;;;;24.70;18.23;;;13.70;89.30;;;;;;5008178;28;20033;-59
2022/11/01 05:11:59;;;;;;;26.35;17.60;;;13.70;90.00;;;;;;5004919;28;20533;-59
2022/11/01 05:14:24;;;;;;;23.60;18.40;;;13.60;89.20;;;;;;5005237;28;20249;-61
2022/11/01 05:16:53;;;;;;;23.08;17.35;;;13.60;89.30;;;;;;5007388;28;20066;-61
2022/11/01 05:19:19;;;;;;;23.63;17.42;;;13.60;89.30;;;;;;5005212;28;20061;-61
2022/11/01 05:21:44;;;;;;;28.65;17.55;;;13.60;89.40;;;;;;5006531;28;20551;-60
2022/11/01 05:24:10;;;;;;;26.88;17.70;;;13.60;89.50;;;;;;5008613;28;20117;-60
2022/11/01 05:26:36;;;;;;;25.00;17.15;;;13.60;89.50;;;;;;5008240;28;20509;-59
2022/11/01 05:29:01;;;;;;;24.23;17.45;;;13.70;89.50;;;;;;5007227;28;20374;-59
2022/11/01 05:31:27;;;;;;;23.70;17.38;;;13.70;89.50;;;;;;5007190;28;20038;-59
2022/11/01 05:33:52;;;;;;;25.30;18.80;;;13.70;89.40;;;;;;5006365;28;20050;-61
2022/11/01 05:36:18;;;;;;;33.25;20.65;;;13.80;89.30;;;;;;5004103;28;20030;-59
2022/11/01 05:38:43;;;;;;;27.85;19.75;;;13.80;89.20;;;;;;5006005;28;20457;-60
2022/11/01 05:41:09;;;;;;;33.67;21.65;;;13.80;89.00;;;;;;5006928;28;20030;-59
2022/11/01 05:43:35;;;;;;;29.65;19.35;;;13.80;89.00;;;;;;5006086;28;20422;-61
2022/11/01 05:46:07;;;;;;;27.33;19.38;;;13.80;88.90;;;;;;5013698;28;20520;-60
2022/11/01 05:48:33;;;;;;;27.65;19.63;;;13.80;89.00;;;;;;5005772;28;20497;-60
2022/11/01 05:50:59;;;;;;;23.85;17.42;;;13.80;89.00;;;;;;5005389;28;20379;-60
2022/11/01 05:53:25;;;;;;;24.58;18.05;;;13.80;89.00;;;;;;5005119;28;20052;-61
2022/11/01 05:55:50;;;;;;;25.75;18.27;;;13.80;89.00;;;;;;5005299;28;20034;-59
2022/11/01 05:58:16;;;;;;;29.52;21.63;;;13.80;89.00;;;;;;5006684;28;20057;-59
2022/11/01 06:00:42;;;;;;;34.60;22.88;;;13.80;89.00;;;;;;5005263;28;20184;-61
2022/11/01 06:03:07;;;;;;;34.28;22.70;;;13.80;89.00;;;;;;5004733;28;20049;-61
2022/11/01 06:05:33;;;;;;;28.52;20.38;;;13.80;89.00;;;;;;5006546;28;20450;-61
2022/11/01 06:08:00;;;;;;;28.90;19.00;;;13.80;89.10;;;;;;5007199;28;20087;-61
2022/11/01 06:10:27;;;;;;;25.42;18.08;;;13.80;89.00;;;;;;5001570;28;20383;-59
2022/11/01 06:12:53;;;;;;;26.42;17.77;;;13.80;89.00;;;;;;5003471;28;20037;-60
2022/11/01 06:15:19;;;;;;;22.73;17.10;;;13.80;89.00;;;;;;5005640;28;20338;-61
2022/11/01 06:17:44;;;;;;;25.05;16.75;;;13.90;89.00;;;;;;5005567;28;20072;-59
2022/11/01 06:20:10;;;;;;;23.48;16.02;;;13.90;89.00;;;;;;5006228;28;20053;-62
2022/11/01 06:22:36;;;;;;;23.42;16.25;;;13.90;89.00;;;;;;5004021;28;20512;-59
2022/11/01 06:25:04;;;;;;;22.95;15.60;;;13.90;88.90;;;;;;5006068;28;20100;-61
2022/11/01 06:27:29;;;;;;;21.55;15.93;;;13.90;88.80;;;;;;5003102;28;20074;-59
2022/11/01 06:29:55;;;;;;;21.40;15.32;;;13.90;88.80;;;;;;5004072;28;20061;-59
2022/11/01 06:32:20;;;;;;;23.65;16.00;;;13.80;88.70;;;;;;5006538;28;20453;-60
2022/11/01 06:34:46;;;;;;;18.02;14.48;;;13.90;88.80;;;;;;5004533;28;20126;-60
2022/11/01 06:37:11;;;;;;;21.85;15.10;;;13.80;88.80;;;;;;5003882;28;20061;-59
2022/11/01 06:39:37;;;;;;;28.17;19.55;;;13.80;88.80;;;;;;5005888;28;20029;-60
2022/11/01 06:42:03;;;;;;;30.38;20.35;;;13.80;88.90;;;;;;5006589;28;20084;-60
2022/11/01 06:44:28;;;;;;;26.38;19.83;;;13.80;89.00;;;;;;5006249;28;20578;-61
2022/11/01 06:46:54;;;;;;;23.90;15.73;;;13.80;89.10;;;;;;5003101;28;20528;-59
2022/11/01 06:49:20;;;;;;;19.92;14.45;;;13.80;89.20;;;;;;5003206;28;20038;-59
2022/11/01 06:51:46;;;;;;;23.55;14.40;;;13.80;89.20;;;;;;5007320;28;20089;-61
2022/11/01 06:54:12;;;;;;;20.17;13.73;;;13.80;89.30;;;;;;4994758;28;20121;-62
2022/11/01 06:56:38;;;;;;;21.42;14.52;;;13.80;89.40;;;;;;5003129;28;20112;-61
2022/11/01 06:59:04;;;;;;;23.95;15.40;;;13.80;89.40;;;;;;5006492;28;20033;-61
2022/11/01 07:01:29;;;;;;;23.83;15.23;;;13.80;89.50;;;;;;5005480;28;20458;-61
2022/11/01 07:03:55;;;;;;;22.05;15.05;;;13.90;89.70;;;;;;5005759;28;20409;-60
2022/11/01 07:06:23;;;;;;;23.70;16.05;;;13.90;89.80;;;;;;5006062;28;20084;-60
2022/11/01 07:08:48;;;;;;;23.42;15.50;;;13.90;89.80;;;;;;5006773;28;20034;-61
2022/11/01 07:11:14;;;;;;;19.60;14.45;;;13.90;89.90;;;;;;5002444;28;20033;-60
2022/11/01 07:13:39;;;;;;;17.65;12.80;;;14.00;90.00;;;;;;5020093;28;20030;-59
2022/11/01 07:16:06;;;;;;;19.85;13.35;;;14.00;90.00;;;;;;5007452;28;20034;-60
2022/11/01 07:18:31;;;;;;;18.38;13.18;;;14.00;90.00;;;;;;5005836;28;20050;-61
2022/11/01 07:21:01;;;;;;;16.83;12.13;;;14.10;90.00;;;;;;5006140;28;20497;-60
2022/11/01 07:23:28;;;;;;;22.23;13.50;;;14.10;90.00;;;;;;5004920;28;20054;-62
2022/11/01 07:25:54;;;;;;;20.42;13.18;;;14.20;90.40;;;;;;5003833;28;20038;-61
2022/11/01 07:28:19;;;;;;;17.40;12.75;;;14.20;90.00;;;;;;5004435;28;20044;-58
2022/11/01 07:30:53;;;;;;;21.70;12.32;;;14.30;90.00;;;;;;4995461;28;20044;-61
2022/11/01 07:33:19;;;;;;;20.17;12.55;;;14.30;90.10;;;;;;4999608;28;20529;-62
2022/11/01 07:35:46;;;;;;;16.70;12.30;;;14.40;90.00;;;;;;4989428;28;20116;-62
2022/11/01 07:38:12;;;;;;;21.50;12.95;;;14.40;90.00;;;;;;4988495;28;20517;-62
2022/11/01 07:40:38;;;;;;;18.50;12.93;;;14.50;90.00;;;;;;4995872;28;20045;-62
2022/11/01 07:43:04;;;;;;;17.70;12.55;;;14.60;90.00;;;;;;4997018;28;20034;-61
2022/11/01 07:45:31;;;;;;;18.33;12.02;;;14.60;90.00;;;;;;5000157;28;20034;-62
2022/11/01 07:48:02;;;;;;;18.92;12.27;;;14.70;89.90;;;;;;5001224;28;20033;-61
2022/11/01 07:50:29;;;;;;;17.77;12.73;;;14.80;89.90;;;;;;4994947;28;20280;-61
2022/11/01 07:53:01;;;;;;;16.85;11.93;;;14.80;89.70;;;;;;4998584;28;20382;-59
2022/11/01 07:55:27;;;;;;;16.77;11.38;;;14.90;89.40;;;;;;5000856;28;20034;-60
2022/11/01 07:57:53;;;;;;;18.25;11.18;;;14.90;89.20;;;;;;5003181;28;20041;-61
2022/11/01 08:00:18;;;;;;;13.60;10.27;;;14.90;88.90;;;;;;4999222;28;20165;-61
2022/11/01 08:02:44;;;;;;;16.95;10.32;;;15.00;88.80;;;;;;4994667;28;20042;-59
2022/11/01 08:05:11;;;;;;;14.88;10.23;;;15.00;88.60;;;;;;5001967;28;20507;-60
2022/11/01 08:07:38;;;;;;;16.58;10.00;;;15.10;88.60;;;;;;4999509;28;20034;-59
2022/11/01 08:10:11;;;;;;;13.73;9.73;;;15.10;88.50;;;;;;4996872;28;20140;-60
2022/11/01 08:12:37;;;;;;;12.88;9.23;;;15.10;88.30;;;;;;4995826;28;20255;-62
2022/11/01 08:15:04;;;;;;;14.93;9.07;;;15.20;88.30;;;;;;5001065;28;20041;-61
2022/11/01 08:17:29;;;;;;;14.27;9.40;;;15.20;88.30;;;;;;4999997;28;20030;-60
2022/11/01 08:19:55;;;;;;;13.90;9.65;;;15.30;88.10;;;;;;4997908;28;20525;-60
2022/11/01 08:22:21;;;;;;;13.60;8.73;;;15.30;88.00;;;;;;4997384;28;20429;-61
2022/11/01 08:24:46;;;;;;;12.98;9.00;;;15.30;87.90;;;;;;4998146;28;20951;-61
2022/11/01 08:27:12;;;;;;;14.95;8.90;;;15.30;87.70;;;;;;4993691;28;20057;-62
2022/11/01 08:29:38;;;;;;;13.50;8.15;;;15.40;87.60;;;;;;5000415;28;20070;-62
2022/11/01 08:32:04;;;;;;;12.10;8.48;;;15.40;87.60;;;;;;4997669;28;20038;-62
2022/11/01 08:34:29;;;;;;;11.25;8.75;;;15.50;87.60;;;;;;4998474;28;20116;-60
2022/11/01 08:36:58;;;;;;;10.70;7.97;;;15.50;87.40;;;;;;4997922;28;20237;-62
2022/11/01 08:39:24;;;;;;;10.77;7.57;;;15.50;87.20;;;;;;4996655;28;20045;-61
2022/11/01 08:41:50;;;;;;;10.73;7.68;;;15.60;87.30;;;;;;4996931;28;20046;-61
2022/11/01 08:44:18;;;;;;;11.02;7.70;;;15.60;87.30;;;;;;4997155;28;20038;-61
2022/11/01 08:46:44;;;;;;;9.95;7.45;;;15.70;87.20;;;;;;4998488;28;20052;-60
2022/11/01 08:49:10;;;;;;;8.43;6.78;;;15.70;87.10;;;;;;5004261;28;20072;-61
2022/11/01 08:51:36;;;;;;;9.00;6.68;;;15.70;86.90;;;;;;5002648;28;20030;-62
2022/11/01 08:54:02;;;;;;;14.52;7.30;;;15.80;87.00;;;;;;5000990;28;20032;-59
2022/11/01 08:56:28;;;;;;;12.30;7.18;;;15.80;86.90;;;;;;5004321;28;20050;-62
2022/11/01 08:58:54;;;;;;;12.60;7.53;;;15.90;86.70;;;;;;5005215;28;20034;-60
2022/11/01 09:01:22;;;;;;;9.88;6.18;;;15.90;86.40;;;;;;4997865;28;20046;-61
2022/11/01 09:03:49;;;;;;;9.30;6.50;;;16.00;86.20;;;;;;5004030;28;20517;-59
2022/11/01 09:06:15;;;;;;;7.85;6.05;;;16.00;86.10;;;;;;5004679;28;20037;-60
2022/11/01 09:08:40;;;;;;;12.02;6.30;;;16.00;85.90;;;;;;4995965;28;20034;-60
2022/11/01 09:11:06;;;;;;;8.35;6.28;;;16.00;85.80;;;;;;4994774;28;20041;-61
2022/11/01 09:13:33;;;;;;;9.38;6.75;;;16.00;85.90;;;;;;5003342;28;20037;-61
2022/11/01 09:16:03;;;;;;;10.68;6.60;;;16.10;85.90;;;;;;4994482;28;20038;-61
2022/11/01 09:18:29;;;;;;;12.90;6.30;;;16.10;85.70;;;;;;5003580;28;20042;-62
2022/11/01 09:20:55;;;;;;;10.48;6.22;;;16.10;85.70;;;;;;5005894;28;20038;-62
2022/11/01 09:23:21;;;;;;;8.88;5.97;;;16.10;85.60;;;;;;5003210;28;20034;-61
2022/11/01 09:25:46;;;;;;;7.63;5.40;;;16.10;85.50;;;;;;4998995;28;20034;-61
2022/11/01 09:28:12;;;;;;;12.75;6.28;;;16.20;85.60;;;;;;5002522;28;20026;-60
2022/11/01 09:30:39;;;;;;;6.65;5.15;;;16.20;85.60;;;;;;5000221;28;20033;-62
2022/11/01 09:33:05;;;;;;;6.60;5.35;;;16.20;85.50;;;;;;5003121;28;20041;-61
2022/11/01 09:35:31;;;;;;;8.80;5.70;;;16.30;85.50;;;;;;5003203;28;20042;-61
2022/11/01 09:38:02;;;;;;;8.02;5.25;;;16.30;85.30;;;;;;5002240;28;20523;-62
2022/11/01 09:40:34;;;;;;;9.00;5.40;;;16.40;85.10;;;;;;5000155;28;20501;-61
2022/11/01 09:43:01;;;;;;;7.75;5.00;;;16.40;84.80;;;;;;5001175;28;20038;-62
2022/11/01 09:45:30;;;;;;;8.68;4.72;;;16.40;84.80;;;;;;5002991;28;20060;-63
2022/11/01 09:47:58;;;;;;;6.85;4.53;;;16.40;84.60;;;;;;5003329;28;20029;-61
2022/11/01 09:50:33;;;;;;;7.70;4.97;;;16.50;84.70;;;;;;5001906;28;20554;-62
2022/11/01 09:53:01;;;;;;;10.32;4.57;;;16.50;84.50;;;;;;4997677;28;20030;-61
2022/11/01 09:56:00;;;;;;;9.27;5.07;;;16.50;84.30;;;;;;5003471;28;20242;-62
2022/11/01 09:58:47;;;;;;;7.38;4.85;;;16.50;83.80;;;;;;4985163;28;20065;-61
2022/11/01 10:01:27;;;;;;;6.97;4.60;;;16.50;83.90;;;;;;5001702;28;20096;-62
2022/11/01 10:04:18;;;;;;;7.30;4.80;;;16.50;83.60;;;;;;5004079;28;20037;-61
2022/11/01 10:07:08;;;;;;;8.60;4.57;;;16.50;83.60;;;;;;4999668;28;20397;-62
2022/11/01 10:09:46;;;;;;;6.43;4.80;;;16.60;83.70;;;;;;4996213;28;20026;-62
2022/11/01 10:12:25;;;;;;;7.03;4.43;;;16.60;83.60;;;;;;4994898;28;20057;-62
2022/11/01 10:15:08;;;;;;;6.35;4.60;;;16.60;84.00;;;;;;5004667;28;20018;-62
2022/11/01 10:17:46;;;;;;;9.30;4.70;;;16.70;83.60;;;;;;4995647;28;20026;-61
2022/11/01 10:20:13;;;;;;;7.60;4.65;;;16.80;83.10;;;;;;4999299;28;20254;-62
2022/11/01 10:22:42;;;;;;;5.55;4.53;;;16.80;83.60;;;;;;4997409;28;20034;-61
2022/11/01 10:25:22;;;;;;;6.75;4.32;;;16.80;83.40;;;;;;4998927;28;20138;-60
2022/11/01 10:27:57;;;;;;;8.55;4.63;;;16.90;82.90;;;;;;5003474;28;20505;-62
2022/11/01 10:30:23;;;;;;;6.18;4.55;;;16.90;82.70;;;;;;4999745;28;20461;-62
2022/11/01 10:32:54;;;;;;;4.72;4.28;;;17.00;83.10;;;;;;4999033;28;20433;-62
2022/11/01 10:35:19;;;;;;;7.53;4.35;;;17.00;82.60;;;;;;5002471;28;20448;-62
2022/11/01 10:38:00;;;;;;;7.85;4.13;;;17.10;82.90;;;;;;5000133;28;20030;-62
2022/11/01 10:40:32;;;;;;;6.25;4.00;;;17.20;82.40;;;;;;5002066;28;20092;-62
2022/11/01 10:42:59;;;;;;;5.95;3.70;;;17.20;82.30;;;;;;5000360;28;20494;-62
2022/11/01 10:45:25;;;;;;;6.35;3.78;;;17.30;82.20;;;;;;4998174;28;20042;-61
2022/11/01 10:47:55;;;;;;;6.05;3.35;;;17.30;82.00;;;;;;4994803;28;20041;-63
2022/11/01 10:50:25;;;;;;;4.30;3.70;;;17.40;81.50;;;;;;5004717;28;20034;-62
2022/11/01 10:52:55;;;;;;;5.28;3.35;;;17.40;81.40;;;;;;5005314;28;20030;-62
2022/11/01 10:55:33;;;;;;;8.30;3.50;;;17.50;80.80;;;;;;5002653;28;20030;-62
2022/11/01 10:58:04;;;;;;;5.25;3.67;;;17.50;80.80;;;;;;5006405;28;20442;-62
2022/11/01 11:00:31;;;;;;;3.90;3.20;;;17.60;80.70;;;;;;5005130;28;20029;-64
2022/11/01 11:03:01;;;;;;;5.10;3.00;;;17.60;80.70;;;;;;5006121;28;20053;-61
2022/11/01 11:05:29;;;;;;;5.13;3.10;;;17.60;80.30;;;;;;5003644;28;20349;-61
2022/11/01 11:07:56;;;;;;;5.63;2.63;;;17.70;80.30;;;;;;5005846;28;20057;-60
2022/11/01 11:10:27;;;;;;;4.90;2.65;;;17.70;80.10;;;;;;5004740;28;20064;-60
2022/11/01 11:12:59;;;;;;;5.00;2.45;;;17.80;79.90;;;;;;4995910;28;20030;-63
2022/11/01 11:15:48;;;;;;;4.70;2.58;;;17.80;79.70;;;;;;5005335;28;20041;-61
2022/11/01 11:18:29;;;;;;;7.45;2.95;;;17.90;78.10;;;;;;5005193;28;20117;-61
2022/11/01 11:20:58;;;;;;;3.95;2.47;;;17.90;78.20;;;;;;5005312;28;20026;-62
2022/11/01 11:23:25;;;;;;;4.25;2.03;;;17.90;78.60;;;;;;5004509;28;20037;-62
2022/11/01 11:25:51;;;;;;;4.25;2.30;;;17.90;78.60;;;;;;5004699;28;20497;-62
2022/11/01 11:28:29;;;;;;;2.70;1.92;;;18.00;78.40;;;;;;5004832;28;20045;-62
2022/11/01 11:30:55;;;;;;;2.38;2.10;;;18.00;77.90;;;;;;5003078;28;20030;-62
2022/11/01 11:33:21;;;;;;;4.40;2.10;;;18.00;78.00;;;;;;5002071;28;20029;-62
2022/11/01 11:35:56;;;;;;;2.83;2.05;;;18.00;77.90;;;;;;5006766;28;20519;-63
2022/11/01 11:38:38;;;;;;;;;;;18.00;77.30;;;;;;5005400;28;20041;-62
2022/11/01 11:41:04;;;;;;;2.92;2.10;;;18.00;77.20;;;;;;5005783;28;20044;-60
2022/11/01 11:43:32;;;;;;;3.92;2.30;;;18.00;78.00;;;;;;5006803;28;20117;-62
2022/11/01 11:46:08;;;;;;;3.53;2.30;;;18.00;77.50;;;;;;5004599;28;20048;-62
2022/11/01 11:48:48;;;;;;;2.92;2.25;;;18.00;77.20;;;;;;5003598;28;20038;-62
2022/11/01 11:51:14;;;;;;;4.28;2.28;;;18.10;77.00;;;;;;5005480;28;20038;-63
2022/11/01 11:53:40;;;;;;;5.28;1.83;;;18.00;77.50;;;;;;5003740;28;20042;-62
2022/11/01 11:56:07;;;;;;;2.75;2.00;;;18.00;77.50;;;;;;5006925;28;20042;-62
2022/11/01 11:58:47;;;;;;;3.10;2.10;;;18.10;77.30;;;;;;5007021;28;20042;-63
2022/11/01 12:01:20;;;;;;;9.77;3.10;;;18.10;77.00;;;;;;5004415;28;20034;-62
2022/11/01 12:03:48;;;;;;;7.38;4.25;;;18.10;77.20;;;;;;5005329;28;20037;-61
2022/11/01 12:06:20;;;;;;;5.45;3.13;;;18.10;77.30;;;;;;5005126;28;20038;-62
2022/11/01 12:08:52;;;;;;;4.07;2.42;;;18.10;77.00;;;;;;5004343;28;20405;-62
2022/11/01 12:11:18;;;;;;;3.17;2.28;;;18.10;76.80;;;;;;5002703;28;20026;-63
2022/11/01 12:14:16;;;;;;;3.35;2.75;;;18.10;77.00;;;;;;5003375;28;20038;-61
2022/11/01 12:16:42;;;;;;;4.25;2.22;;;18.10;76.20;;;;;;5006002;28;20069;-63
2022/11/01 12:19:27;;;;;;;4.30;2.80;;;18.10;77.20;;;;;;5005518;28;20061;-62
2022/11/01 12:21:53;;;;;;;;;;;18.10;76.60;;;;;;5004022;28;20026;-62
2022/11/01 12:24:26;;;;;;;3.92;2.70;;;18.10;77.00;;;;;;5010397;28;19913;-62
2022/11/01 12:27:02;;;;;;;4.28;2.53;;;18.10;77.20;;;;;;5007326;28;20125;-63
2022/11/01 12:29:31;;;;;;;3.80;2.28;;;18.10;77.00;;;;;;5007766;28;20120;-62
2022/11/01 12:32:10;;;;;;;3.75;2.30;;;18.00;77.00;;;;;;5007715;28;20484;-61
2022/11/01 12:34:38;;;;;;;7.18;2.70;;;18.00;77.10;;;;;;5005551;28;20045;-62
2022/11/01 12:37:22;;;;;;;2.83;2.28;;;18.00;77.40;;;;;;5005680;28;20176;-62
2022/11/01 12:40:17;;;;;;;3.15;2.03;;;18.10;77.30;;;;;;5009322;28;20482;-62
2022/11/01 12:43:02;;;;;;;3.17;1.65;;;18.10;76.80;;;;;;5006916;28;20045;-62
2022/11/01 12:45:48;;;;;;;1.70;1.60;;;18.10;76.80;;;;;;5007832;28;20100;-62
2022/11/01 12:48:29;;;;;;;3.25;1.70;;;18.20;77.00;;;;;;5008071;28;20036;-61
2022/11/01 12:51:04;;;;;;;5.45;1.60;;;18.20;77.10;;;;;;5004586;28;20572;-61
2022/11/01 12:53:38;;;;;;;2.10;1.30;;;18.20;77.40;;;;;;4996345;28;20085;-60